Pointe A La Hache, Louisiana
Current Conditions -  °F | °C
As of 11:02 PM on Saturday 22 Nov 2014 (Local Time) from KNBG Reporting Station
Overcast Overcast  
Wind Chill: 64°   Ceiling: 600
Heat Index: 64°   Visibility: NA
Dew Point: 60°   Wind: 9mph
Humidity: 87%   Direction: 50°NE
Pressure: 29.91"   Gusts: NA
Location:  29.58°N, 89.79°W
Report Text: KNBG 230502Z AUTO 05008KT OVC006 18/16 A2991 RMK AO2 T01780156 TSNO $
Loading
Personal Weather Stations






























Interactive Weather Map New forecast layout! Learn more

10-Day Weather Forecast

Advertisements
Track Severe Weather on mobile